sensor_id;sensor_type;location;lat;lon;timestamp;temperature;humidity
24814;DHT22;12904;50.088;11.414;2023-04-24T00:00:22;10.10;99.90
24814;DHT22;12904;50.088;11.414;2023-04-24T00:02:48;10.10;99.90
24814;DHT22;12904;50.088;11.414;2023-04-24T00:05:15;10.10;99.90
24814;DHT22;12904;50.088;11.414;2023-04-24T00:07:41;10.00;99.90
24814;DHT22;12904;50.088;11.414;2023-04-24T00:10:07;10.00;99.90
24814;DHT22;12904;50.088;11.414;2023-04-24T00:12:33;10.00;99.90
24814;DHT22;12904;50.088;11.414;2023-04-24T00:14:59;10.00;99.90
24814;DHT22;12904;50.088;11.414;2023-04-24T00:17:25;9.90;99.90
24814;DHT22;12904;50.088;11.414;2023-04-24T00:19:51;9.90;99.90
24814;DHT22;12904;50.088;11.414;2023-04-24T00:22:26;9.90;99.90
24814;DHT22;12904;50.088;11.414;2023-04-24T00:24:52;9.80;99.90
24814;DHT22;12904;50.088;11.414;2023-04-24T00:27:18;9.80;99.90
24814;DHT22;12904;50.088;11.414;2023-04-24T00:29:43;9.80;99.90
24814;DHT22;12904;50.088;11.414;2023-04-24T00:32:09;9.80;99.90
24814;DHT22;12904;50.088;11.414;2023-04-24T00:34:35;9.80;99.90
24814;DHT22;12904;50.088;11.414;2023-04-24T00:37:00;9.80;99.90
24814;DHT22;12904;50.088;11.414;2023-04-24T00:39:26;9.80;99.90
24814;DHT22;12904;50.088;11.414;2023-04-24T00:41:52;9.80;99.90
24814;DHT22;12904;50.088;11.414;2023-04-24T00:44:18;9.90;99.90
24814;DHT22;12904;50.088;11.414;2023-04-24T00:46:44;10.00;99.90
24814;DHT22;12904;50.088;11.414;2023-04-24T00:49:12;10.00;99.90
24814;DHT22;12904;50.088;11.414;2023-04-24T00:51:37;10.00;99.90
24814;DHT22;12904;50.088;11.414;2023-04-24T00:54:03;9.90;99.90
24814;DHT22;12904;50.088;11.414;2023-04-24T00:56:29;9.90;99.90
24814;DHT22;12904;50.088;11.414;2023-04-24T00:58:55;9.90;99.90
24814;DHT22;12904;50.088;11.414;2023-04-24T01:01:21;9.80;99.90
24814;DHT22;12904;50.088;11.414;2023-04-24T01:03:51;9.80;99.90
24814;DHT22;12904;50.088;11.414;2023-04-24T01:06:19;9.80;99.90
24814;DHT22;12904;50.088;11.414;2023-04-24T01:08:46;9.80;99.90
24814;DHT22;12904;50.088;11.414;2023-04-24T01:11:13;9.70;99.90
24814;DHT22;12904;50.088;11.414;2023-04-24T01:13:39;9.70;99.90
24814;DHT22;12904;50.088;11.414;2023-04-24T01:16:05;9.60;99.90
24814;DHT22;12904;50.088;11.414;2023-04-24T01:18:31;9.60;99.90
24814;DHT22;12904;50.088;11.414;2023-04-24T01:20:59;9.60;99.90
24814;DHT22;12904;50.088;11.414;2023-04-24T01:23:25;9.60;99.90
24814;DHT22;12904;50.088;11.414;2023-04-24T01:25:52;9.60;99.90
24814;DHT22;12904;50.088;11.414;2023-04-24T01:28:18;9.60;99.90
24814;DHT22;12904;50.088;11.414;2023-04-24T01:30:45;9.60;99.90
24814;DHT22;12904;50.088;11.414;2023-04-24T01:33:10;9.60;99.90
24814;DHT22;12904;50.088;11.414;2023-04-24T01:35:37;9.70;99.90
24814;DHT22;12904;50.088;11.414;2023-04-24T01:38:03;9.70;99.90
24814;DHT22;12904;50.088;11.414;2023-04-24T01:40:30;9.80;99.90
24814;DHT22;12904;50.088;11.414;2023-04-24T01:42:55;9.80;99.90
24814;DHT22;12904;50.088;11.414;2023-04-24T01:45:22;9.70;99.90
24814;DHT22;12904;50.088;11.414;2023-04-24T01:47:47;9.80;99.90
24814;DHT22;12904;50.088;11.414;2023-04-24T01:50:14;9.70;99.90
24814;DHT22;12904;50.088;11.414;2023-04-24T01:52:40;9.80;99.90
24814;DHT22;12904;50.088;11.414;2023-04-24T01:55:06;9.80;99.90
24814;DHT22;12904;50.088;11.414;2023-04-24T01:57:33;9.80;99.90
24814;DHT22;12904;50.088;11.414;2023-04-24T01:59:59;9.80;99.90
24814;DHT22;12904;50.088;11.414;2023-04-24T02:02:25;9.80;99.90
24814;DHT22;12904;50.088;11.414;2023-04-24T02:04:53;9.90;99.90
24814;DHT22;12904;50.088;11.414;2023-04-24T02:07:19;9.80;99.90
24814;DHT22;12904;50.088;11.414;2023-04-24T02:09:45;9.70;99.90
24814;DHT22;12904;50.088;11.414;2023-04-24T02:12:11;9.70;99.90
24814;DHT22;12904;50.088;11.414;2023-04-24T02:14:37;9.60;99.90
24814;DHT22;12904;50.088;11.414;2023-04-24T02:17:02;9.60;99.90
24814;DHT22;12904;50.088;11.414;2023-04-24T02:19:28;9.50;99.90
24814;DHT22;12904;50.088;11.414;2023-04-24T02:21:54;9.50;99.90
24814;DHT22;12904;50.088;11.414;2023-04-24T02:24:19;9.50;99.90
24814;DHT22;12904;50.088;11.414;2023-04-24T02:26:45;9.40;99.90
24814;DHT22;12904;50.088;11.414;2023-04-24T02:29:10;9.40;99.90
24814;DHT22;12904;50.088;11.414;2023-04-24T02:31:36;9.40;99.90
24814;DHT22;12904;50.088;11.414;2023-04-24T02:34:02;9.40;99.90
24814;DHT22;12904;50.088;11.414;2023-04-24T02:36:27;9.40;99.90
24814;DHT22;12904;50.088;11.414;2023-04-24T02:38:53;9.40;99.90
24814;DHT22;12904;50.088;11.414;2023-04-24T02:41:19;9.40;99.90
24814;DHT22;12904;50.088;11.414;2023-04-24T02:43:45;9.40;99.90
24814;DHT22;12904;50.088;11.414;2023-04-24T02:46:10;9.50;99.90
24814;DHT22;12904;50.088;11.414;2023-04-24T02:48:36;9.50;99.90
24814;DHT22;12904;50.088;11.414;2023-04-24T02:51:02;9.50;99.90
24814;DHT22;12904;50.088;11.414;2023-04-24T02:53:27;9.60;99.90
24814;DHT22;12904;50.088;11.414;2023-04-24T02:55:55;9.60;99.90
24814;DHT22;12904;50.088;11.414;2023-04-24T02:58:20;9.60;99.90
24814;DHT22;12904;50.088;11.414;2023-04-24T03:00:46;9.70;99.90
24814;DHT22;12904;50.088;11.414;2023-04-24T03:03:12;9.70;99.90
24814;DHT22;12904;50.088;11.414;2023-04-24T03:05:38;9.70;99.90
24814;DHT22;12904;50.088;11.414;2023-04-24T03:08:04;9.70;99.90
24814;DHT22;12904;50.088;11.414;2023-04-24T03:10:30;9.60;99.90
24814;DHT22;12904;50.088;11.414;2023-04-24T03:12:56;9.70;99.90
24814;DHT22;12904;50.088;11.414;2023-04-24T03:15:21;9.60;99.90
24814;DHT22;12904;50.088;11.414;2023-04-24T03:17:47;9.60;99.90
24814;DHT22;12904;50.088;11.414;2023-04-24T03:20:13;9.60;99.90
24814;DHT22;12904;50.088;11.414;2023-04-24T03:22:39;9.60;99.90
24814;DHT22;12904;50.088;11.414;2023-04-24T03:25:05;9.60;99.90
24814;DHT22;12904;50.088;11.414;2023-04-24T03:27:31;9.50;99.90
24814;DHT22;12904;50.088;11.414;2023-04-24T03:29:56;9.50;99.90
24814;DHT22;12904;50.088;11.414;2023-04-24T03:32:22;9.50;99.90
24814;DHT22;12904;50.088;11.414;2023-04-24T03:34:48;9.50;99.90
24814;DHT22;12904;50.088;11.414;2023-04-24T03:37:18;9.50;99.90
24814;DHT22;12904;50.088;11.414;2023-04-24T03:39:43;9.50;99.90
24814;DHT22;12904;50.088;11.414;2023-04-24T03:42:09;9.40;99.90
24814;DHT22;12904;50.088;11.414;2023-04-24T03:44:35;9.40;99.90
24814;DHT22;12904;50.088;11.414;2023-04-24T03:47:01;9.40;99.90
24814;DHT22;12904;50.088;11.414;2023-04-24T03:49:27;9.40;99.90
24814;DHT22;12904;50.088;11.414;2023-04-24T03:51:52;9.40;99.90
24814;DHT22;12904;50.088;11.414;2023-04-24T03:54:19;9.40;99.90
24814;DHT22;12904;50.088;11.414;2023-04-24T03:56:44;9.40;99.90
24814;DHT22;12904;50.088;11.414;2023-04-24T03:59:10;9.40;99.90
24814;DHT22;12904;50.088;11.414;2023-04-24T04:01:36;9.50;99.90
24814;DHT22;12904;50.088;11.414;2023-04-24T04:04:06;9.50;99.90
24814;DHT22;12904;50.088;11.414;2023-04-24T04:06:32;9.50;99.90
24814;DHT22;12904;50.088;11.414;2023-04-24T04:08:58;9.50;99.90
24814;DHT22;12904;50.088;11.414;2023-04-24T04:11:24;9.50;99.90
24814;DHT22;12904;50.088;11.414;2023-04-24T04:13:50;9.50;99.90
24814;DHT22;12904;50.088;11.414;2023-04-24T04:16:16;9.50;99.90
24814;DHT22;12904;50.088;11.414;2023-04-24T04:18:43;9.50;99.90
24814;DHT22;12904;50.088;11.414;2023-04-24T04:21:09;9.50;99.90
24814;DHT22;12904;50.088;11.414;2023-04-24T04:23:34;9.50;99.90
24814;DHT22;12904;50.088;11.414;2023-04-24T04:26:00;9.50;99.90
24814;DHT22;12904;50.088;11.414;2023-04-24T04:28:26;9.50;99.90
24814;DHT22;12904;50.088;11.414;2023-04-24T04:30:52;9.50;99.90
24814;DHT22;12904;50.088;11.414;2023-04-24T04:33:21;9.50;99.90
24814;DHT22;12904;50.088;11.414;2023-04-24T04:35:47;9.50;99.90
24814;DHT22;12904;50.088;11.414;2023-04-24T04:38:17;9.50;99.90
24814;DHT22;12904;50.088;11.414;2023-04-24T04:40:44;9.50;99.90
24814;DHT22;12904;50.088;11.414;2023-04-24T04:43:10;9.40;99.90
24814;DHT22;12904;50.088;11.414;2023-04-24T04:45:37;9.50;99.90
24814;DHT22;12904;50.088;11.414;2023-04-24T04:48:04;9.50;99.90
24814;DHT22;12904;50.088;11.414;2023-04-24T04:50:31;9.50;99.90
24814;DHT22;12904;50.088;11.414;2023-04-24T04:52:57;9.50;99.90
24814;DHT22;12904;50.088;11.414;2023-04-24T04:55:22;9.50;99.90
24814;DHT22;12904;50.088;11.414;2023-04-24T04:57:48;9.50;99.90
24814;DHT22;12904;50.088;11.414;2023-04-24T05:00:14;9.60;99.90
24814;DHT22;12904;50.088;11.414;2023-04-24T05:02:39;9.60;99.90
24814;DHT22;12904;50.088;11.414;2023-04-24T05:05:06;9.70;99.90
24814;DHT22;12904;50.088;11.414;2023-04-24T05:07:32;9.80;99.90
24814;DHT22;12904;50.088;11.414;2023-04-24T05:09:58;9.90;99.90
24814;DHT22;12904;50.088;11.414;2023-04-24T05:12:24;10.00;99.90
24814;DHT22;12904;50.088;11.414;2023-04-24T05:14:49;10.10;99.90
24814;DHT22;12904;50.088;11.414;2023-04-24T05:17:15;10.10;99.90
24814;DHT22;12904;50.088;11.414;2023-04-24T05:19:41;10.20;99.90
24814;DHT22;12904;50.088;11.414;2023-04-24T05:22:07;10.30;99.90
24814;DHT22;12904;50.088;11.414;2023-04-24T05:24:35;10.30;99.90
24814;DHT22;12904;50.088;11.414;2023-04-24T05:27:01;10.30;99.90
24814;DHT22;12904;50.088;11.414;2023-04-24T05:29:28;10.40;99.90
24814;DHT22;12904;50.088;11.414;2023-04-24T05:31:56;10.40;99.90
24814;DHT22;12904;50.088;11.414;2023-04-24T05:34:22;10.40;99.90
24814;DHT22;12904;50.088;11.414;2023-04-24T05:36:47;10.40;99.90
24814;DHT22;12904;50.088;11.414;2023-04-24T05:39:14;10.50;99.90
24814;DHT22;12904;50.088;11.414;2023-04-24T05:41:40;10.50;99.90
24814;DHT22;12904;50.088;11.414;2023-04-24T05:44:06;10.60;99.90
24814;DHT22;12904;50.088;11.414;2023-04-24T05:46:31;10.70;99.90
24814;DHT22;12904;50.088;11.414;2023-04-24T05:48:57;10.80;99.90
24814;DHT22;12904;50.088;11.414;2023-04-24T05:51:23;10.80;99.90
24814;DHT22;12904;50.088;11.414;2023-04-24T05:53:49;10.90;99.90
24814;DHT22;12904;50.088;11.414;2023-04-24T05:56:15;10.90;99.90
24814;DHT22;12904;50.088;11.414;2023-04-24T05:58:41;11.00;99.90
24814;DHT22;12904;50.088;11.414;2023-04-24T06:01:06;11.00;99.90
24814;DHT22;12904;50.088;11.414;2023-04-24T06:03:32;11.10;99.90
24814;DHT22;12904;50.088;11.414;2023-04-24T06:05:58;11.30;99.90
24814;DHT22;12904;50.088;11.414;2023-04-24T06:08:23;11.40;99.90
24814;DHT22;12904;50.088;11.414;2023-04-24T06:10:49;11.50;99.90
24814;DHT22;12904;50.088;11.414;2023-04-24T06:13:15;11.60;99.90
24814;DHT22;12904;50.088;11.414;2023-04-24T06:15:41;11.70;99.90
24814;DHT22;12904;50.088;11.414;2023-04-24T06:18:07;11.80;99.90
24814;DHT22;12904;50.088;11.414;2023-04-24T06:20:35;11.90;99.90
24814;DHT22;12904;50.088;11.414;2023-04-24T06:23:01;12.00;99.90
24814;DHT22;12904;50.088;11.414;2023-04-24T06:25:27;12.00;99.90
24814;DHT22;12904;50.088;11.414;2023-04-24T06:27:53;12.00;99.90
24814;DHT22;12904;50.088;11.414;2023-04-24T06:30:19;11.90;99.90
24814;DHT22;12904;50.088;11.414;2023-04-24T06:32:44;11.90;99.90
24814;DHT22;12904;50.088;11.414;2023-04-24T06:35:10;11.90;99.90
24814;DHT22;12904;50.088;11.414;2023-04-24T06:37:41;12.10;99.90
24814;DHT22;12904;50.088;11.414;2023-04-24T06:40:07;12.10;99.90
24814;DHT22;12904;50.088;11.414;2023-04-24T06:42:33;12.20;99.90
24814;DHT22;12904;50.088;11.414;2023-04-24T06:44:59;12.10;99.90
24814;DHT22;12904;50.088;11.414;2023-04-24T06:47:24;11.90;99.90
24814;DHT22;12904;50.088;11.414;2023-04-24T06:49:50;11.80;99.90
24814;DHT22;12904;50.088;11.414;2023-04-24T06:52:18;11.80;99.90
24814;DHT22;12904;50.088;11.414;2023-04-24T06:54:44;11.80;99.90
24814;DHT22;12904;50.088;11.414;2023-04-24T06:57:10;11.80;99.90
24814;DHT22;12904;50.088;11.414;2023-04-24T06:59:36;12.00;99.90
24814;DHT22;12904;50.088;11.414;2023-04-24T07:02:02;12.10;99.90
24814;DHT22;12904;50.088;11.414;2023-04-24T07:04:28;12.00;99.90
24814;DHT22;12904;50.088;11.414;2023-04-24T07:06:54;12.00;99.90
24814;DHT22;12904;50.088;11.414;2023-04-24T07:09:21;11.90;99.90
24814;DHT22;12904;50.088;11.414;2023-04-24T07:11:47;11.90;99.90
24814;DHT22;12904;50.088;11.414;2023-04-24T07:14:13;12.00;99.90
24814;DHT22;12904;50.088;11.414;2023-04-24T07:16:39;12.10;99.90
24814;DHT22;12904;50.088;11.414;2023-04-24T07:19:05;12.40;99.90
24814;DHT22;12904;50.088;11.414;2023-04-24T07:21:30;12.50;99.90
24814;DHT22;12904;50.088;11.414;2023-04-24T07:23:58;12.60;99.90
24814;DHT22;12904;50.088;11.414;2023-04-24T07:26:23;12.60;99.90
24814;DHT22;12904;50.088;11.414;2023-04-24T07:28:49;12.50;99.90
24814;DHT22;12904;50.088;11.414;2023-04-24T07:31:15;12.60;99.90
24814;DHT22;12904;50.088;11.414;2023-04-24T07:33:41;12.60;99.90
24814;DHT22;12904;50.088;11.414;2023-04-24T07:36:06;12.70;99.90
24814;DHT22;12904;50.088;11.414;2023-04-24T07:38:32;12.70;99.90
24814;DHT22;12904;50.088;11.414;2023-04-24T07:40:58;12.80;99.90
24814;DHT22;12904;50.088;11.414;2023-04-24T07:43:23;12.80;99.90
24814;DHT22;12904;50.088;11.414;2023-04-24T07:45:52;12.70;99.90
24814;DHT22;12904;50.088;11.414;2023-04-24T07:48:18;12.70;99.90
24814;DHT22;12904;50.088;11.414;2023-04-24T07:50:44;12.80;99.90
24814;DHT22;12904;50.088;11.414;2023-04-24T07:53:10;12.90;99.90
24814;DHT22;12904;50.088;11.414;2023-04-24T07:55:36;12.90;99.90
24814;DHT22;12904;50.088;11.414;2023-04-24T07:58:01;12.90;99.90
24814;DHT22;12904;50.088;11.414;2023-04-24T08:00:27;12.80;99.90
24814;DHT22;12904;50.088;11.414;2023-04-24T08:02:53;12.80;99.90
24814;DHT22;12904;50.088;11.414;2023-04-24T08:05:18;12.70;99.90
24814;DHT22;12904;50.088;11.414;2023-04-24T08:07:45;12.70;99.90
24814;DHT22;12904;50.088;11.414;2023-04-24T08:10:14;12.90;99.90
24814;DHT22;12904;50.088;11.414;2023-04-24T08:12:41;12.90;99.90
24814;DHT22;12904;50.088;11.414;2023-04-24T08:15:07;13.00;99.90
24814;DHT22;12904;50.088;11.414;2023-04-24T08:17:34;13.10;99.90
24814;DHT22;12904;50.088;11.414;2023-04-24T08:20:01;13.10;99.90
24814;DHT22;12904;50.088;11.414;2023-04-24T08:22:27;13.20;99.90
24814;DHT22;12904;50.088;11.414;2023-04-24T08:24:53;13.30;99.90
24814;DHT22;12904;50.088;11.414;2023-04-24T08:27:19;13.40;99.90
24814;DHT22;12904;50.088;11.414;2023-04-24T08:29:45;13.10;99.90
24814;DHT22;12904;50.088;11.414;2023-04-24T08:32:10;12.90;99.90
24814;DHT22;12904;50.088;11.414;2023-04-24T08:34:36;12.80;99.90
24814;DHT22;12904;50.088;11.414;2023-04-24T08:37:02;12.70;99.90
24814;DHT22;12904;50.088;11.414;2023-04-24T08:39:28;12.70;99.90
24814;DHT22;12904;50.088;11.414;2023-04-24T08:41:55;12.60;99.90
24814;DHT22;12904;50.088;11.414;2023-04-24T08:44:21;12.60;99.90
24814;DHT22;12904;50.088;11.414;2023-04-24T08:46:48;12.70;99.90
24814;DHT22;12904;50.088;11.414;2023-04-24T08:49:15;12.80;99.90
24814;DHT22;12904;50.088;11.414;2023-04-24T08:51:44;12.90;99.90
24814;DHT22;12904;50.088;11.414;2023-04-24T08:54:12;12.90;99.90
24814;DHT22;12904;50.088;11.414;2023-04-24T08:56:38;12.90;99.90
24814;DHT22;12904;50.088;11.414;2023-04-24T08:59:06;12.80;99.90
24814;DHT22;12904;50.088;11.414;2023-04-24T09:01:32;12.70;99.90
24814;DHT22;12904;50.088;11.414;2023-04-24T09:04:03;12.60;99.90
24814;DHT22;12904;50.088;11.414;2023-04-24T09:06:29;12.80;99.90
24814;DHT22;12904;50.088;11.414;2023-04-24T09:08:59;13.00;99.90
24814;DHT22;12904;50.088;11.414;2023-04-24T09:11:26;13.20;99.90
24814;DHT22;12904;50.088;11.414;2023-04-24T09:13:53;13.20;99.90
24814;DHT22;12904;50.088;11.414;2023-04-24T09:16:19;13.10;99.90
24814;DHT22;12904;50.088;11.414;2023-04-24T09:18:45;13.00;99.90
24814;DHT22;12904;50.088;11.414;2023-04-24T09:21:11;13.00;99.90
24814;DHT22;12904;50.088;11.414;2023-04-24T09:23:37;12.80;98.70
24814;DHT22;12904;50.088;11.414;2023-04-24T09:26:04;12.70;99.90
24814;DHT22;12904;50.088;11.414;2023-04-24T09:28:39;12.60;99.40
24814;DHT22;12904;50.088;11.414;2023-04-24T09:33:32;12.50;99.90
24814;DHT22;12904;50.088;11.414;2023-04-24T09:35:58;12.60;99.90
24814;DHT22;12904;50.088;11.414;2023-04-24T09:38:35;12.80;99.90
24814;DHT22;12904;50.088;11.414;2023-04-24T09:41:07;12.90;99.90
24814;DHT22;12904;50.088;11.414;2023-04-24T09:43:34;13.20;99.90
24814;DHT22;12904;50.088;11.414;2023-04-24T09:46:06;13.80;99.90
24814;DHT22;12904;50.088;11.414;2023-04-24T09:48:34;14.20;99.90
24814;DHT22;12904;50.088;11.414;2023-04-24T09:51:02;14.20;94.00
24814;DHT22;12904;50.088;11.414;2023-04-24T09:53:29;14.50;95.20
24814;DHT22;12904;50.088;11.414;2023-04-24T09:55:56;14.70;93.00
24814;DHT22;12904;50.088;11.414;2023-04-24T09:58:25;14.60;92.40
24814;DHT22;12904;50.088;11.414;2023-04-24T10:00:55;14.50;93.30
24814;DHT22;12904;50.088;11.414;2023-04-24T10:03:24;14.40;90.60
24814;DHT22;12904;50.088;11.414;2023-04-24T10:05:52;14.20;93.40
24814;DHT22;12904;50.088;11.414;2023-04-24T10:08:18;14.20;92.90
24814;DHT22;12904;50.088;11.414;2023-04-24T10:10:46;14.50;94.10
24814;DHT22;12904;50.088;11.414;2023-04-24T10:13:13;14.80;93.10
24814;DHT22;12904;50.088;11.414;2023-04-24T10:15:40;14.90;92.80
24814;DHT22;12904;50.088;11.414;2023-04-24T10:18:07;14.90;90.10
24814;DHT22;12904;50.088;11.414;2023-04-24T10:20:35;14.70;83.80
24814;DHT22;12904;50.088;11.414;2023-04-24T10:23:02;14.30;86.50
24814;DHT22;12904;50.088;11.414;2023-04-24T10:25:35;13.90;88.40
24814;DHT22;12904;50.088;11.414;2023-04-24T10:28:02;13.50;92.80
24814;DHT22;12904;50.088;11.414;2023-04-24T10:30:33;13.30;93.40
24814;DHT22;12904;50.088;11.414;2023-04-24T10:33:07;13.20;96.10
24814;DHT22;12904;50.088;11.414;2023-04-24T10:35:36;13.20;94.30
24814;DHT22;12904;50.088;11.414;2023-04-24T10:38:05;13.30;93.70
24814;DHT22;12904;50.088;11.414;2023-04-24T10:40:34;13.30;92.10
24814;DHT22;12904;50.088;11.414;2023-04-24T10:43:03;13.30;95.20
24814;DHT22;12904;50.088;11.414;2023-04-24T10:45:31;13.40;94.90
24814;DHT22;12904;50.088;11.414;2023-04-24T10:47:57;13.40;93.40
24814;DHT22;12904;50.088;11.414;2023-04-24T10:50:26;13.50;94.70
24814;DHT22;12904;50.088;11.414;2023-04-24T10:52:52;13.50;94.90
24814;DHT22;12904;50.088;11.414;2023-04-24T10:58:12;13.40;97.10
24814;DHT22;12904;50.088;11.414;2023-04-24T11:00:41;13.20;95.00
24814;DHT22;12904;50.088;11.414;2023-04-24T11:05:55;12.70;99.90
24814;DHT22;12904;50.088;11.414;2023-04-24T11:08:28;12.50;99.90
24814;DHT22;12904;50.088;11.414;2023-04-24T11:13:25;12.20;99.90
24814;DHT22;12904;50.088;11.414;2023-04-24T11:22:20;12.90;95.30
24814;DHT22;12904;50.088;11.414;2023-04-24T11:24:27;13.20;94.50
24814;DHT22;12904;50.088;11.414;2023-04-24T11:26:56;13.60;96.10
24814;DHT22;12904;50.088;11.414;2023-04-24T11:29:22;13.80;95.50
24814;DHT22;12904;50.088;11.414;2023-04-24T11:31:48;14.10;90.70
24814;DHT22;12904;50.088;11.414;2023-04-24T11:34:17;14.50;86.10
24814;DHT22;12904;50.088;11.414;2023-04-24T11:36:44;14.50;89.40
24814;DHT22;12904;50.088;11.414;2023-04-24T11:39:10;14.60;93.10
24814;DHT22;12904;50.088;11.414;2023-04-24T11:41:37;14.80;82.40
24814;DHT22;12904;50.088;11.414;2023-04-24T11:44:03;14.80;86.30
24814;DHT22;12904;50.088;11.414;2023-04-24T11:46:31;14.80;79.40
24814;DHT22;12904;50.088;11.414;2023-04-24T11:48:57;14.60;82.10
24814;DHT22;12904;50.088;11.414;2023-04-24T11:51:24;14.40;90.50
24814;DHT22;12904;50.088;11.414;2023-04-24T11:53:54;14.10;83.50
24814;DHT22;12904;50.088;11.414;2023-04-24T11:56:24;13.80;83.00
24814;DHT22;12904;50.088;11.414;2023-04-24T11:58:52;13.40;89.50
24814;DHT22;12904;50.088;11.414;2023-04-24T12:01:19;13.00;90.80
24814;DHT22;12904;50.088;11.414;2023-04-24T12:03:50;12.70;93.40
24814;DHT22;12904;50.088;11.414;2023-04-24T12:06:17;12.50;95.20
24814;DHT22;12904;50.088;11.414;2023-04-24T12:08:46;12.40;96.00
24814;DHT22;12904;50.088;11.414;2023-04-24T12:11:15;12.20;97.70
24814;DHT22;12904;50.088;11.414;2023-04-24T12:13:42;12.10;99.50
24814;DHT22;12904;50.088;11.414;2023-04-24T12:16:07;11.90;99.90
24814;DHT22;12904;50.088;11.414;2023-04-24T12:18:33;11.80;99.90
24814;DHT22;12904;50.088;11.414;2023-04-24T12:21:21;11.70;99.90
24814;DHT22;12904;50.088;11.414;2023-04-24T12:23:47;11.80;99.90
24814;DHT22;12904;50.088;11.414;2023-04-24T12:26:20;12.10;99.90
24814;DHT22;12904;50.088;11.414;2023-04-24T12:28:48;12.30;99.90
24814;DHT22;12904;50.088;11.414;2023-04-24T12:31:17;12.50;99.90
24814;DHT22;12904;50.088;11.414;2023-04-24T12:33:43;12.80;99.90
24814;DHT22;12904;50.088;11.414;2023-04-24T12:36:11;12.90;99.90
24814;DHT22;12904;50.088;11.414;2023-04-24T12:38:38;13.00;95.70
24814;DHT22;12904;50.088;11.414;2023-04-24T12:41:09;12.80;95.60
24814;DHT22;12904;50.088;11.414;2023-04-24T12:43:35;12.50;95.50
24814;DHT22;12904;50.088;11.414;2023-04-24T12:46:01;12.20;98.00
24814;DHT22;12904;50.088;11.414;2023-04-24T12:48:28;12.00;98.10
24814;DHT22;12904;50.088;11.414;2023-04-24T12:50:54;12.10;95.40
24814;DHT22;12904;50.088;11.414;2023-04-24T12:53:20;12.20;93.80
24814;DHT22;12904;50.088;11.414;2023-04-24T12:55:46;12.40;95.30
24814;DHT22;12904;50.088;11.414;2023-04-24T12:58:20;12.60;93.00
24814;DHT22;12904;50.088;11.414;2023-04-24T13:00:46;12.80;91.10
24814;DHT22;12904;50.088;11.414;2023-04-24T13:03:12;13.20;91.60
24814;DHT22;12904;50.088;11.414;2023-04-24T13:05:38;13.40;89.70
24814;DHT22;12904;50.088;11.414;2023-04-24T13:08:03;13.50;90.00
24814;DHT22;12904;50.088;11.414;2023-04-24T13:10:29;13.60;89.60
24814;DHT22;12904;50.088;11.414;2023-04-24T13:12:55;13.70;88.80
24814;DHT22;12904;50.088;11.414;2023-04-24T13:15:21;13.90;90.40
24814;DHT22;12904;50.088;11.414;2023-04-24T13:17:47;14.30;87.10
24814;DHT22;12904;50.088;11.414;2023-04-24T13:20:13;14.70;86.30
24814;DHT22;12904;50.088;11.414;2023-04-24T13:22:39;14.80;80.40
24814;DHT22;12904;50.088;11.414;2023-04-24T13:25:05;14.70;79.80
24814;DHT22;12904;50.088;11.414;2023-04-24T13:27:31;14.30;83.20
24814;DHT22;12904;50.088;11.414;2023-04-24T13:29:57;14.20;85.30
24814;DHT22;12904;50.088;11.414;2023-04-24T13:32:22;14.20;87.30
24814;DHT22;12904;50.088;11.414;2023-04-24T13:34:48;14.20;87.40
24814;DHT22;12904;50.088;11.414;2023-04-24T13:37:14;14.20;84.30
24814;DHT22;12904;50.088;11.414;2023-04-24T13:39:40;14.30;84.20
24814;DHT22;12904;50.088;11.414;2023-04-24T13:42:06;14.10;87.20
24814;DHT22;12904;50.088;11.414;2023-04-24T13:44:32;14.20;84.50
24814;DHT22;12904;50.088;11.414;2023-04-24T13:46:58;14.10;86.80
24814;DHT22;12904;50.088;11.414;2023-04-24T13:49:24;13.80;89.00
24814;DHT22;12904;50.088;11.414;2023-04-24T13:51:51;13.60;91.40
24814;DHT22;12904;50.088;11.414;2023-04-24T13:54:17;13.30;86.00
24814;DHT22;12904;50.088;11.414;2023-04-24T13:56:43;13.20;88.20
24814;DHT22;12904;50.088;11.414;2023-04-24T13:59:09;13.10;89.70
24814;DHT22;12904;50.088;11.414;2023-04-24T14:01:35;13.10;88.80
24814;DHT22;12904;50.088;11.414;2023-04-24T14:04:01;13.20;89.30
24814;DHT22;12904;50.088;11.414;2023-04-24T14:06:26;13.60;90.80
24814;DHT22;12904;50.088;11.414;2023-04-24T14:08:52;14.20;85.70
24814;DHT22;12904;50.088;11.414;2023-04-24T14:11:18;14.70;86.10
24814;DHT22;12904;50.088;11.414;2023-04-24T14:13:45;14.60;84.60
24814;DHT22;12904;50.088;11.414;2023-04-24T14:16:11;14.30;82.00
24814;DHT22;12904;50.088;11.414;2023-04-24T14:18:37;14.00;87.80
24814;DHT22;12904;50.088;11.414;2023-04-24T14:21:03;13.80;86.00
24814;DHT22;12904;50.088;11.414;2023-04-24T14:23:29;13.60;89.10
24814;DHT22;12904;50.088;11.414;2023-04-24T14:25:56;13.50;92.90
24814;DHT22;12904;50.088;11.414;2023-04-24T14:28:22;13.40;90.90
24814;DHT22;12904;50.088;11.414;2023-04-24T14:30:48;13.10;91.40
24814;DHT22;12904;50.088;11.414;2023-04-24T14:33:14;12.80;93.90
24814;DHT22;12904;50.088;11.414;2023-04-24T14:35:42;12.50;95.00
24814;DHT22;12904;50.088;11.414;2023-04-24T14:38:09;12.20;98.00
24814;DHT22;12904;50.088;11.414;2023-04-24T14:40:35;12.00;98.90
24814;DHT22;12904;50.088;11.414;2023-04-24T14:43:01;12.00;99.90
24814;DHT22;12904;50.088;11.414;2023-04-24T14:45:27;12.20;99.90
24814;DHT22;12904;50.088;11.414;2023-04-24T14:47:53;12.40;99.90
24814;DHT22;12904;50.088;11.414;2023-04-24T14:50:19;12.40;99.90
24814;DHT22;12904;50.088;11.414;2023-04-24T14:52:44;12.40;99.90
24814;DHT22;12904;50.088;11.414;2023-04-24T14:55:10;12.30;99.90
24814;DHT22;12904;50.088;11.414;2023-04-24T14:57:36;12.20;99.90
24814;DHT22;12904;50.088;11.414;2023-04-24T15:00:04;12.10;99.90
24814;DHT22;12904;50.088;11.414;2023-04-24T15:02:32;12.30;99.90
24814;DHT22;12904;50.088;11.414;2023-04-24T15:04:58;12.30;99.90
24814;DHT22;12904;50.088;11.414;2023-04-24T15:07:24;12.20;99.90
24814;DHT22;12904;50.088;11.414;2023-04-24T15:09:50;12.20;99.90
24814;DHT22;12904;50.088;11.414;2023-04-24T15:12:15;12.30;99.90
24814;DHT22;12904;50.088;11.414;2023-04-24T15:14:41;12.50;99.90
24814;DHT22;12904;50.088;11.414;2023-04-24T15:17:07;12.60;99.90
24814;DHT22;12904;50.088;11.414;2023-04-24T15:19:32;12.60;99.90
24814;DHT22;12904;50.088;11.414;2023-04-24T15:21:58;12.70;98.40
24814;DHT22;12904;50.088;11.414;2023-04-24T15:24:23;12.90;96.90
24814;DHT22;12904;50.088;11.414;2023-04-24T15:26:49;12.90;94.80
24814;DHT22;12904;50.088;11.414;2023-04-24T15:29:15;13.10;96.30
24814;DHT22;12904;50.088;11.414;2023-04-24T15:31:41;13.50;94.70